sim
Sign-in with your pilot id or email,
or register
Callsign
Passwort

Schedule Details

Flight Number: OEO3039
Departure: Paderborn Lippstadt Airport (EDLP) at 06:55
Arrival: Munich Airport (EDDM) at 08:10

Weather Information
Getting current METAR information for EDLP 250850Z 21014KT 9999 SCT023 12/06 Q0998
Getting current METAR information for EDDM 250850Z 28010KT 250V310 9999 -RA FEW018 SCT030 BKN045 10/08 Q1003 RERA NOSIG

Schedule Frequency

Route Map